sensor_id;sensor_type;location;lat;lon;timestamp;pressure;altitude;pressure_sealevel;temperature;humidity
37066;BME280;22981;43.080;25.550;2023-05-25T05:34:55;99591.28;;;15.09;82.89
37066;BME280;22981;43.080;25.550;2023-05-25T05:37:26;99592.50;;;15.18;82.84
37066;BME280;22981;43.080;25.550;2023-05-25T05:39:54;99597.00;;;15.30;82.97
37066;BME280;22981;43.080;25.550;2023-05-25T05:42:21;99598.22;;;15.41;82.92
37066;BME280;22981;43.080;25.550;2023-05-25T05:44:49;99598.06;;;15.48;82.63
37066;BME280;22981;43.080;25.550;2023-05-25T05:47:17;99581.59;;;15.47;82.61
37066;BME280;22981;43.080;25.550;2023-05-25T05:49:44;99592.25;;;15.59;82.56
37066;BME280;22981;43.080;25.550;2023-05-25T05:52:12;99597.56;;;15.68;82.45
37066;BME280;22981;43.080;25.550;2023-05-25T05:54:40;99602.27;;;15.77;82.51
37066;BME280;22981;43.080;25.550;2023-05-25T05:57:07;99603.95;;;15.84;82.33
37066;BME280;22981;43.080;25.550;2023-05-25T05:59:35;99603.52;;;15.89;81.97
37066;BME280;22981;43.080;25.550;2023-05-25T06:02:02;99606.00;;;15.96;81.89
37066;BME280;22981;43.080;25.550;2023-05-25T06:04:30;99606.38;;;16.05;81.68
37066;BME280;22981;43.080;25.550;2023-05-25T06:06:58;99612.14;;;16.11;81.25
37066;BME280;22981;43.080;25.550;2023-05-25T06:09:26;99617.33;;;16.17;80.94
37066;BME280;22981;43.080;25.550;2023-05-25T06:11:53;99625.31;;;16.29;80.92
37066;BME280;22981;43.080;25.550;2023-05-25T06:14:23;99616.80;;;16.42;80.95
37066;BME280;22981;43.080;25.550;2023-05-25T06:16:50;99619.91;;;16.53;80.85
37066;BME280;22981;43.080;25.550;2023-05-25T06:19:18;99616.48;;;16.66;80.86
37066;BME280;22981;43.080;25.550;2023-05-25T06:21:45;99624.75;;;16.78;80.60
37066;BME280;22981;43.080;25.550;2023-05-25T06:24:14;99620.77;;;16.86;80.32
37066;BME280;22981;43.080;25.550;2023-05-25T06:26:41;99625.70;;;16.92;80.04
37066;BME280;22981;43.080;25.550;2023-05-25T06:29:09;99630.61;;;16.97;79.95
37066;BME280;22981;43.080;25.550;2023-05-25T06:31:37;99629.64;;;17.09;79.85
37066;BME280;22981;43.080;25.550;2023-05-25T06:34:04;99626.16;;;17.13;79.73
37066;BME280;22981;43.080;25.550;2023-05-25T06:36:32;99582.71;;;16.95;79.68
37066;BME280;22981;43.080;25.550;2023-05-25T06:38:59;99629.23;;;17.27;79.55
37066;BME280;22981;43.080;25.550;2023-05-25T06:41:27;99632.23;;;17.33;79.59
37066;BME280;22981;43.080;25.550;2023-05-25T06:43:56;99627.42;;;17.40;79.23
37066;BME280;22981;43.080;25.550;2023-05-25T06:46:23;99625.02;;;17.46;79.14
37066;BME280;22981;43.080;25.550;2023-05-25T06:48:51;99628.86;;;17.56;79.28
37066;BME280;22981;43.080;25.550;2023-05-25T06:51:18;99633.23;;;17.64;79.23
37066;BME280;22981;43.080;25.550;2023-05-25T06:53:46;99636.59;;;17.74;79.44
37066;BME280;22981;43.080;25.550;2023-05-25T06:56:14;99633.95;;;17.87;79.59
37066;BME280;22981;43.080;25.550;2023-05-25T06:58:42;99632.39;;;18.01;79.43
37066;BME280;22981;43.080;25.550;2023-05-25T07:01:09;99631.36;;;18.15;79.39
37066;BME280;22981;43.080;25.550;2023-05-25T07:03:37;99631.69;;;18.31;79.36
37066;BME280;22981;43.080;25.550;2023-05-25T07:06:05;99629.83;;;18.44;78.85
37066;BME280;22981;43.080;25.550;2023-05-25T07:08:33;99633.39;;;18.55;78.45
37066;BME280;22981;43.080;25.550;2023-05-25T07:11:01;99632.89;;;18.71;78.11
37066;BME280;22981;43.080;25.550;2023-05-25T07:13:29;99631.02;;;18.87;77.67
37066;BME280;22981;43.080;25.550;2023-05-25T07:15:59;99628.31;;;19.05;76.60
37066;BME280;22981;43.080;25.550;2023-05-25T07:18:26;99628.86;;;19.17;76.11
37066;BME280;22981;43.080;25.550;2023-05-25T07:20:54;99626.68;;;19.29;75.64
37066;BME280;22981;43.080;25.550;2023-05-25T07:23:21;99627.47;;;19.40;75.41
37066;BME280;22981;43.080;25.550;2023-05-25T07:25:49;99627.45;;;19.52;74.90
37066;BME280;22981;43.080;25.550;2023-05-25T07:28:17;99626.92;;;19.61;74.39
37066;BME280;22981;43.080;25.550;2023-05-25T07:30:44;99629.11;;;19.66;73.82
37066;BME280;22981;43.080;25.550;2023-05-25T07:33:12;99629.34;;;19.72;73.19
37066;BME280;22981;43.080;25.550;2023-05-25T07:35:39;99625.78;;;19.82;73.14
37066;BME280;22981;43.080;25.550;2023-05-25T07:38:07;99629.29;;;19.93;73.07
37066;BME280;22981;43.080;25.550;2023-05-25T07:40:35;99622.73;;;20.01;72.65
37066;BME280;22981;43.080;25.550;2023-05-25T07:43:02;99624.59;;;20.14;72.44
37066;BME280;22981;43.080;25.550;2023-05-25T07:45:30;99619.64;;;20.26;71.66
37066;BME280;22981;43.080;25.550;2023-05-25T07:47:58;99621.23;;;20.35;71.63
37066;BME280;22981;43.080;25.550;2023-05-25T07:50:26;99618.70;;;20.46;71.37
37066;BME280;22981;43.080;25.550;2023-05-25T07:52:53;99618.11;;;20.59;71.14
37066;BME280;22981;43.080;25.550;2023-05-25T07:55:21;99621.59;;;20.70;70.57
37066;BME280;22981;43.080;25.550;2023-05-25T07:57:48;99617.16;;;20.82;69.96
37066;BME280;22981;43.080;25.550;2023-05-25T08:00:17;99618.43;;;20.92;69.80
37066;BME280;22981;43.080;25.550;2023-05-25T08:02:45;99620.80;;;21.01;69.10
37066;BME280;22981;43.080;25.550;2023-05-25T08:05:12;99616.66;;;21.09;68.39
37066;BME280;22981;43.080;25.550;2023-05-25T08:07:40;99619.33;;;21.16;68.31
37066;BME280;22981;43.080;25.550;2023-05-25T08:10:08;99615.44;;;21.25;67.87
37066;BME280;22981;43.080;25.550;2023-05-25T08:12:36;99618.94;;;21.33;67.85
37066;BME280;22981;43.080;25.550;2023-05-25T08:15:04;99610.14;;;21.41;67.64
37066;BME280;22981;43.080;25.550;2023-05-25T08:17:31;99612.21;;;21.49;66.76
37066;BME280;22981;43.080;25.550;2023-05-25T08:19:59;99605.88;;;21.57;66.20
37066;BME280;22981;43.080;25.550;2023-05-25T08:22:27;99604.19;;;21.63;65.26
37066;BME280;22981;43.080;25.550;2023-05-25T08:24:54;99608.47;;;21.69;64.87
37066;BME280;22981;43.080;25.550;2023-05-25T08:27:22;99601.88;;;21.75;64.27
37066;BME280;22981;43.080;25.550;2023-05-25T08:29:49;99599.58;;;21.85;63.95
37066;BME280;22981;43.080;25.550;2023-05-25T08:32:17;99605.43;;;21.97;63.60
37066;BME280;22981;43.080;25.550;2023-05-25T08:34:44;99595.25;;;22.06;63.36
37066;BME280;22981;43.080;25.550;2023-05-25T08:37:12;99599.78;;;22.15;62.60
37066;BME280;22981;43.080;25.550;2023-05-25T08:39:40;99599.38;;;22.24;62.64
37066;BME280;22981;43.080;25.550;2023-05-25T08:42:07;99592.48;;;22.30;62.25
37066;BME280;22981;43.080;25.550;2023-05-25T08:44:36;99599.70;;;22.39;61.90
37066;BME280;22981;43.080;25.550;2023-05-25T08:47:05;99596.60;;;22.48;61.03
37066;BME280;22981;43.080;25.550;2023-05-25T08:49:36;99605.77;;;22.55;60.98
37066;BME280;22981;43.080;25.550;2023-05-25T08:52:04;99598.03;;;22.62;60.45
37066;BME280;22981;43.080;25.550;2023-05-25T08:54:36;99604.99;;;22.71;60.22
37066;BME280;22981;43.080;25.550;2023-05-25T09:00:07;99596.55;;;22.86;60.47
37066;BME280;22981;43.080;25.550;2023-05-25T09:16:18;99579.88;;;23.94;55.17
37066;BME280;22981;43.080;25.550;2023-05-25T09:18:46;99573.05;;;23.67;56.15
37066;BME280;22981;43.080;25.550;2023-05-25T09:21:14;99569.33;;;23.60;56.48
37066;BME280;22981;43.080;25.550;2023-05-25T09:23:41;99570.70;;;23.60;57.13
37066;BME280;22981;43.080;25.550;2023-05-25T09:26:09;99565.97;;;23.66;56.85
37066;BME280;22981;43.080;25.550;2023-05-25T09:28:46;99565.05;;;23.70;56.32
37066;BME280;22981;43.080;25.550;2023-05-25T09:31:10;99558.42;;;23.74;55.59
37066;BME280;22981;43.080;25.550;2023-05-25T09:33:40;99570.61;;;23.79;55.75
37066;BME280;22981;43.080;25.550;2023-05-25T09:36:09;99566.12;;;23.86;55.45
37066;BME280;22981;43.080;25.550;2023-05-25T09:38:37;99568.50;;;23.90;55.42
37066;BME280;22981;43.080;25.550;2023-05-25T09:41:06;99563.12;;;23.98;55.42
37066;BME280;22981;43.080;25.550;2023-05-25T09:43:34;99558.34;;;24.04;54.73
37066;BME280;22981;43.080;25.550;2023-05-25T09:46:02;99553.08;;;24.08;53.29
37066;BME280;22981;43.080;25.550;2023-05-25T09:48:29;99545.59;;;24.11;53.68
37066;BME280;22981;43.080;25.550;2023-05-25T09:50:57;99540.60;;;24.15;53.33
37066;BME280;22981;43.080;25.550;2023-05-25T09:53:26;99538.59;;;24.18;53.73
37066;BME280;22981;43.080;25.550;2023-05-25T09:55:53;99545.88;;;24.23;53.29
37066;BME280;22981;43.080;25.550;2023-05-25T09:58:22;99542.48;;;24.29;52.15
37066;BME280;22981;43.080;25.550;2023-05-25T10:00:53;99539.39;;;24.33;52.34
37066;BME280;22981;43.080;25.550;2023-05-25T10:03:21;99537.66;;;24.37;51.52
37066;BME280;22981;43.080;25.550;2023-05-25T10:05:49;99532.89;;;24.42;51.64
37066;BME280;22981;43.080;25.550;2023-05-25T10:08:19;99528.34;;;24.49;50.78
37066;BME280;22981;43.080;25.550;2023-05-25T10:10:48;99518.52;;;24.48;49.75
37066;BME280;22981;43.080;25.550;2023-05-25T10:13:22;99515.59;;;24.44;49.93
37066;BME280;22981;43.080;25.550;2023-05-25T10:15:52;99505.64;;;24.48;50.47
37066;BME280;22981;43.080;25.550;2023-05-25T10:18:23;99503.77;;;24.58;50.81
37066;BME280;22981;43.080;25.550;2023-05-25T10:20:56;99501.28;;;24.70;50.58
37066;BME280;22981;43.080;25.550;2023-05-25T10:23:22;99493.90;;;24.59;50.11
37066;BME280;22981;43.080;25.550;2023-05-25T10:25:53;99492.51;;;24.37;51.24
37066;BME280;22981;43.080;25.550;2023-05-25T10:28:27;99503.41;;;24.14;52.28
37066;BME280;22981;43.080;25.550;2023-05-25T10:30:59;99501.84;;;23.99;52.96
37066;BME280;22981;43.080;25.550;2023-05-25T10:33:28;99505.30;;;23.91;53.38
37066;BME280;22981;43.080;25.550;2023-05-25T10:35:57;99497.37;;;24.04;53.79
37066;BME280;22981;43.080;25.550;2023-05-25T10:38:26;99501.82;;;24.24;53.29
37066;BME280;22981;43.080;25.550;2023-05-25T10:41:01;99490.28;;;24.39;53.11
37066;BME280;22981;43.080;25.550;2023-05-25T10:43:29;99482.57;;;24.52;52.67
37066;BME280;22981;43.080;25.550;2023-05-25T10:45:57;99480.94;;;24.62;52.64
37066;BME280;22981;43.080;25.550;2023-05-25T10:48:39;99478.58;;;24.69;52.41
37066;BME280;22981;43.080;25.550;2023-05-25T10:51:07;99485.37;;;24.72;52.15
37066;BME280;22981;43.080;25.550;2023-05-25T10:53:34;99484.18;;;24.53;51.96
37066;BME280;22981;43.080;25.550;2023-05-25T10:56:04;99479.20;;;24.33;51.88
37066;BME280;22981;43.080;25.550;2023-05-25T10:58:33;99483.72;;;24.26;52.11
37066;BME280;22981;43.080;25.550;2023-05-25T11:01:13;99470.67;;;24.34;51.76
37066;BME280;22981;43.080;25.550;2023-05-25T11:03:56;99464.16;;;24.44;50.78
37066;BME280;22981;43.080;25.550;2023-05-25T11:09:27;99448.84;;;24.77;50.86
37066;BME280;22981;43.080;25.550;2023-05-25T11:14:35;99446.80;;;24.48;51.80
37066;BME280;22981;43.080;25.550;2023-05-25T11:17:09;99445.01;;;24.44;52.58
37066;BME280;22981;43.080;25.550;2023-05-25T11:19:44;99443.56;;;24.58;51.89
37066;BME280;22981;43.080;25.550;2023-05-25T11:24:43;99437.64;;;24.95;49.98
37066;BME280;22981;43.080;25.550;2023-05-25T11:27:11;99447.66;;;25.11;49.92
37066;BME280;22981;43.080;25.550;2023-05-25T11:29:40;99441.96;;;25.08;49.53
37066;BME280;22981;43.080;25.550;2023-05-25T11:32:12;99446.66;;;24.96;49.59
37066;BME280;22981;43.080;25.550;2023-05-25T11:34:40;99436.85;;;24.84;50.40
37066;BME280;22981;43.080;25.550;2023-05-25T11:37:09;99438.77;;;24.94;50.31
37066;BME280;22981;43.080;25.550;2023-05-25T11:39:38;99440.32;;;24.98;50.27
37066;BME280;22981;43.080;25.550;2023-05-25T11:42:05;99435.48;;;24.84;51.38
37066;BME280;22981;43.080;25.550;2023-05-25T11:44:35;99440.95;;;24.64;51.10
37066;BME280;22981;43.080;25.550;2023-05-25T11:47:08;99437.84;;;24.34;52.08
37066;BME280;22981;43.080;25.550;2023-05-25T11:49:41;99446.46;;;24.05;54.13
37066;BME280;22981;43.080;25.550;2023-05-25T11:52:11;99466.17;;;23.80;55.99
37066;BME280;22981;43.080;25.550;2023-05-25T11:54:39;99465.04;;;23.56;56.63
37066;BME280;22981;43.080;25.550;2023-05-25T11:57:22;99479.67;;;23.35;57.41
37066;BME280;22981;43.080;25.550;2023-05-25T11:59:59;99495.30;;;23.18;57.56
37066;BME280;22981;43.080;25.550;2023-05-25T12:02:25;99506.80;;;23.01;57.82
37066;BME280;22981;43.080;25.550;2023-05-25T12:04:54;99483.77;;;22.74;56.85
37066;BME280;22981;43.080;25.550;2023-05-25T12:07:23;99486.48;;;22.42;56.87
37066;BME280;22981;43.080;25.550;2023-05-25T12:10:03;99467.95;;;22.04;58.30
37066;BME280;22981;43.080;25.550;2023-05-25T12:12:21;99475.84;;;21.65;59.37
37066;BME280;22981;43.080;25.550;2023-05-25T12:14:49;99479.48;;;21.31;60.30
37066;BME280;22981;43.080;25.550;2023-05-25T12:17:18;99491.95;;;21.11;61.38
37066;BME280;22981;43.080;25.550;2023-05-25T12:19:47;99506.84;;;20.94;61.63
37066;BME280;22981;43.080;25.550;2023-05-25T12:22:15;99522.73;;;20.82;61.96
37066;BME280;22981;43.080;25.550;2023-05-25T12:24:42;99534.88;;;20.61;63.31
37066;BME280;22981;43.080;25.550;2023-05-25T12:27:18;99529.56;;;20.38;64.34
37066;BME280;22981;43.080;25.550;2023-05-25T12:29:47;99521.53;;;20.22;64.83
37066;BME280;22981;43.080;25.550;2023-05-25T12:32:15;99509.33;;;20.17;65.12
37066;BME280;22981;43.080;25.550;2023-05-25T12:34:43;99511.20;;;20.22;65.59
37066;BME280;22981;43.080;25.550;2023-05-25T12:37:18;99498.13;;;20.26;65.89
37066;BME280;22981;43.080;25.550;2023-05-25T12:39:47;99501.34;;;20.31;66.07
37066;BME280;22981;43.080;25.550;2023-05-25T12:42:16;99495.58;;;20.38;66.57
37066;BME280;22981;43.080;25.550;2023-05-25T12:44:45;99498.55;;;20.41;67.33
37066;BME280;22981;43.080;25.550;2023-05-25T12:47:14;99505.30;;;20.46;67.38
37066;BME280;22981;43.080;25.550;2023-05-25T12:49:45;99503.11;;;20.54;67.49
37066;BME280;22981;43.080;25.550;2023-05-25T12:52:33;99500.33;;;20.61;67.66
37066;BME280;22981;43.080;25.550;2023-05-25T12:55:25;99519.88;;;20.63;68.06
37066;BME280;22981;43.080;25.550;2023-05-25T12:58:00;99508.00;;;20.54;67.93
37066;BME280;22981;43.080;25.550;2023-05-25T13:00:26;99511.81;;;20.53;68.17
37066;BME280;22981;43.080;25.550;2023-05-25T13:02:54;99510.77;;;20.49;68.58
37066;BME280;22981;43.080;25.550;2023-05-25T13:05:30;99502.60;;;20.49;68.53
37066;BME280;22981;43.080;25.550;2023-05-25T13:07:55;99502.87;;;20.47;68.57
37066;BME280;22981;43.080;25.550;2023-05-25T13:10:23;99501.52;;;20.45;68.90
37066;BME280;22981;43.080;25.550;2023-05-25T13:12:52;99501.52;;;20.45;69.04
37066;BME280;22981;43.080;25.550;2023-05-25T13:15:21;99498.54;;;20.44;69.25
37066;BME280;22981;43.080;25.550;2023-05-25T13:17:49;99498.80;;;20.42;69.49
37066;BME280;22981;43.080;25.550;2023-05-25T13:20:19;99498.58;;;20.39;69.78
37066;BME280;22981;43.080;25.550;2023-05-25T13:22:49;99497.48;;;20.37;69.98
37066;BME280;22981;43.080;25.550;2023-05-25T13:25:17;99492.64;;;20.34;69.99
37066;BME280;22981;43.080;25.550;2023-05-25T13:27:49;99488.86;;;20.30;70.07
37066;BME280;22981;43.080;25.550;2023-05-25T13:30:18;99491.08;;;20.23;70.09
37066;BME280;22981;43.080;25.550;2023-05-25T13:32:51;99495.19;;;20.18;70.30
37066;BME280;22981;43.080;25.550;2023-05-25T13:35:19;99498.20;;;20.14;70.52
37066;BME280;22981;43.080;25.550;2023-05-25T13:38:05;99502.58;;;20.10;70.62
37066;BME280;22981;43.080;25.550;2023-05-25T13:40:32;99500.97;;;20.04;70.92
37066;BME280;22981;43.080;25.550;2023-05-25T13:43:00;99504.27;;;19.98;71.40
37066;BME280;22981;43.080;25.550;2023-05-25T13:45:28;99502.39;;;19.93;71.65
37066;BME280;22981;43.080;25.550;2023-05-25T13:47:56;99496.16;;;19.90;71.81
37066;BME280;22981;43.080;25.550;2023-05-25T13:50:24;99503.23;;;19.86;71.87
37066;BME280;22981;43.080;25.550;2023-05-25T15:09:41;99540.67;;;18.96;79.59
37066;BME280;22981;43.080;25.550;2023-05-25T15:12:30;99556.70;;;18.90;79.53
37066;BME280;22981;43.080;25.550;2023-05-25T15:15:07;99555.88;;;18.87;79.04
